Impacts TAF Board INFO
FOR SITUATIONAL AWARENESS. NOT TO BE USED FOR FLIGHT PLANNING PURPOSES.
IDs:

KTPA - Tampa Intl Arpt, FL, US

Issued at 1737 UTC 25 Feb 2018
Updated at 1741 UTC 25 Feb 2018
Potential Impact None Slight Moderate High
Time<<26/18Z 26/19Z 26/20Z 26/21Z 26/22Z 26/23Z 27/00Z 27/01Z 27/02Z 27/03Z 27/04Z 27/05Z 27/06Z
Type PRVL PRVL PRVL PRVL PRVL PRVL
VIS >6 >6 >6 >6 >6 >6
CIG -- -- -- -- -- --
Cover SCT SCT SCT SCT SCT SCT
FltCat VFR VFR VFR VFR VFR VFR
WX -- -- -- -- -- --
WDir 210 210 210 210 210 210
WSpd 8 8 8 8 8 8
WGst -- -- -- -- -- --

Raw TAF
KTPA 251737Z 2518/2624 21008KT P6SM SCT040
  FM260100 VRB03KT P6SM SCT060
  FM261400 18005KT P6SM FEW025
  FM261700 21008KT P6SM SCT040


METAR Board
Radar Display
Forecast Discussion

FOR SITUATIONAL AWARENESS. NOT TO BE USED FOR FLIGHT PLANNING PURPOSES.